Time;durP1;ratioP1;P1;durP2;ratioP2;P2;SDS_P1;SDS_P2;PMS_P1;PMS_P2;Temp;Humidity;BMP_temperature;BMP_pressure;BME280_temperature;BME280_humidity;BME280_pressure;Samples;Min_cycle;Max_cycle;Signal;HPM_P1;HPM_P2
2023/06/08 00:00:18;;;;;;;8.63;4.45;;;;;;;12.35;100.00;95682.16;1026049;28;20449;-73
2023/06/08 00:00:50;;;;;;;6.10;4.00;;;;;;;12.35;100.00;95687.41;1030036;28;20214;-73
2023/06/08 00:01:20;;;;;;;6.75;3.90;;;;;;;12.36;100.00;95683.72;1025260;28;20121;-73
2023/06/08 00:01:52;;;;;;;6.63;4.15;;;;;;;12.36;100.00;95681.09;1029945;28;20057;-73
2023/06/08 00:02:26;;;;;;;14.70;5.05;;;;;;;12.37;100.00;95685.28;1029932;28;20034;-73
2023/06/08 00:02:56;;;;;;;14.65;4.80;;;;;;;12.33;100.00;95681.63;1029994;28;20081;-73
2023/06/08 00:03:27;;;;;;;8.60;4.40;;;;;;;12.29;100.00;95675.34;1026792;28;20443;-73
2023/06/08 00:04:05;;;;;;;10.88;4.38;;;;;;;12.32;100.00;95681.91;1025252;28;20058;-72
2023/06/08 00:04:35;;;;;;;9.02;4.38;;;;;;;12.30;100.00;95687.44;1021958;28;20032;-73
2023/06/08 00:05:07;;;;;;;7.85;4.40;;;;;;;12.28;100.00;95679.03;1019045;29;20050;-73
2023/06/08 00:05:43;;;;;;;9.70;4.15;;;;;;;12.24;100.00;95670.13;1022507;28;20051;-73
2023/06/08 00:06:15;;;;;;;8.20;4.82;;;;;;;12.28;100.00;95676.41;1026826;28;20035;-73
2023/06/08 00:06:49;;;;;;;7.57;4.38;;;;;;;12.28;100.00;95679.03;1023011;28;20055;-73
2023/06/08 00:07:21;;;;;;;13.02;5.55;;;;;;;12.26;100.00;95678.53;1021322;28;20028;-74
2023/06/08 00:07:52;;;;;;;12.50;4.53;;;;;;;12.20;100.00;95663.84;1023695;28;20023;-75
2023/06/08 00:08:23;;;;;;;10.85;4.53;;;;;;;12.24;100.00;95680.66;1022238;29;20027;-73
2023/06/08 00:08:53;;;;;;;7.82;4.32;;;;;;;12.24;100.00;95680.66;1017789;29;20494;-72
2023/06/08 00:09:24;;;;;;;13.05;4.15;;;;;;;12.23;100.00;95679.06;1018513;28;20027;-73
2023/06/08 00:09:56;;;;;;;10.10;4.10;;;;;;;12.17;100.00;95664.38;1022310;28;20075;-73
2023/06/08 00:10:26;;;;;;;5.97;4.00;;;;;;;12.20;100.00;95675.13;1022537;28;20059;-73
2023/06/08 00:10:57;;;;;;;6.25;4.03;;;;;;;12.14;100.00;95667.56;1025703;28;20026;-72
2023/06/08 00:11:28;;;;;;;5.82;3.92;;;;;;;12.14;100.00;95670.19;1021968;28;20034;-72
2023/06/08 00:11:59;;;;;;;4.85;3.75;;;;;;;12.17;100.00;95672.25;1018474;29;20032;-72
2023/06/08 00:12:29;;;;;;;5.82;4.40;;;;;;;12.10;100.00;95658.66;1026074;28;20034;-73
2023/06/08 00:13:00;;;;;;;6.45;4.18;;;;;;;12.12;100.00;95661.78;1026469;28;20493;-75
2023/06/08 00:13:31;;;;;;;5.43;4.03;;;;;;;12.13;100.00;95669.41;1022624;28;20029;-73
2023/06/08 00:14:01;;;;;;;4.30;3.90;;;;;;;12.05;100.00;95656.84;1027155;28;20027;-73
2023/06/08 00:14:34;;;;;;;5.10;3.70;;;;;;;12.14;100.00;95664.91;1026297;28;20497;-72
2023/06/08 00:15:05;;;;;;;8.05;4.53;;;;;;;12.13;100.00;95664.13;1029995;28;20026;-73
2023/06/08 00:15:36;;;;;;;8.48;4.13;;;;;;;12.13;100.00;95673.88;1026450;28;20031;-73
2023/06/08 00:16:06;;;;;;;8.52;4.28;;;;;;;12.07;100.00;95659.19;1030305;28;20062;-73
2023/06/08 00:16:38;;;;;;;5.10;4.05;;;;;;;12.11;100.00;95676.00;1030884;28;20084;-72
2023/06/08 00:17:09;;;;;;;7.85;4.07;;;;;;;12.12;100.00;95667.84;1034326;28;20025;-74
2023/06/08 00:17:40;;;;;;;6.65;4.10;;;;;;;12.11;100.00;95673.38;1033731;28;20053;-73
2023/06/08 00:18:11;;;;;;;6.53;4.22;;;;;;;12.10;100.00;95675.22;1037207;28;20092;-73
2023/06/08 00:18:42;;;;;;;10.40;4.63;;;;;;;12.11;100.00;95668.91;1030631;28;20023;-73
2023/06/08 00:19:12;;;;;;;4.95;3.85;;;;;;;12.09;100.00;95668.38;1034262;28;20491;-73
2023/06/08 00:19:43;;;;;;;6.40;4.18;;;;;;;12.02;100.00;95663.44;1038130;28;20025;-73
2023/06/08 00:20:13;;;;;;;5.55;4.07;;;;;;;12.09;100.00;95672.88;1034305;28;20018;-73
2023/06/08 00:20:44;;;;;;;5.85;4.10;;;;;;;12.09;100.00;95670.22;1038328;28;20112;-72
2023/06/08 00:21:15;;;;;;;6.45;4.30;;;;;;;12.07;100.00;95669.72;1037406;28;20518;-73
2023/06/08 00:21:48;;;;;;;4.78;3.70;;;;;;;12.06;100.00;95668.94;1037731;28;20100;-73
2023/06/08 00:22:21;;;;;;;7.68;3.97;;;;;;;12.07;100.00;95672.34;1034370;28;20033;-73
2023/06/08 00:22:51;;;;;;;6.05;3.70;;;;;;;11.97;100.00;95658.22;1030037;28;20029;-73
2023/06/08 00:23:22;;;;;;;6.82;4.05;;;;;;;12.05;100.00;95662.09;1026015;28;20023;-73
2023/06/08 00:23:53;;;;;;;5.20;3.95;;;;;;;12.06;100.00;95673.41;1021794;29;20106;-72
2023/06/08 00:24:23;;;;;;;5.72;4.38;;;;;;;12.06;100.00;95668.16;1018259;29;20478;-72
2023/06/08 00:24:54;;;;;;;5.35;4.40;;;;;;;12.08;100.00;95672.09;1028803;28;20022;-73
2023/06/08 00:25:24;;;;;;;8.98;4.10;;;;;;;12.06;100.00;95668.16;1030209;28;20034;-73
2023/06/08 00:25:55;;;;;;;4.82;4.07;;;;;;;12.08;100.00;95679.19;1022043;28;20135;-73
2023/06/08 00:26:28;;;;;;;7.70;4.50;;;;;;;12.11;100.00;95678.66;1026144;28;20058;-72
2023/06/08 00:26:59;;;;;;;6.38;4.70;;;;;;;12.12;100.00;95665.22;1026067;28;20045;-74
2023/06/08 00:27:29;;;;;;;7.75;4.90;;;;;;;12.26;100.00;95675.91;1025373;28;20472;-73
2023/06/08 00:28:00;;;;;;;6.68;4.63;;;;;;;12.32;100.00;95677.44;1030271;28;20030;-73
2023/06/08 00:28:30;;;;;;;10.63;5.15;;;;;;;12.37;100.00;95680.00;1034046;28;20034;-73
2023/06/08 00:29:01;;;;;;;8.73;5.05;;;;;;;12.43;100.00;95672.88;1030031;28;20424;-71
2023/06/08 00:29:35;;;;;;;7.40;4.60;;;;;;;12.45;100.00;95670.75;1030086;28;20484;-72
2023/06/08 00:30:06;;;;;;;5.82;4.38;;;;;;;12.50;100.00;95671.50;1029364;28;20492;-72
2023/06/08 00:30:37;;;;;;;8.18;4.53;;;;;;;12.57;100.00;95667.75;1030699;28;20034;-72
2023/06/08 00:31:07;;;;;;;6.60;4.88;;;;;;;12.59;100.00;95660.38;1029263;28;20105;-72
2023/06/08 00:31:38;;;;;;;7.97;4.40;;;;;;;12.60;100.00;95662.72;1025628;28;20097;-72
2023/06/08 00:32:08;;;;;;;4.53;4.05;;;;;;;12.61;100.00;95658.25;1026089;28;20033;-73
2023/06/08 00:32:39;;;;;;;5.82;4.22;;;;;;;12.62;100.00;95657.19;1026230;28;20031;-73
2023/06/08 00:33:09;;;;;;;5.53;4.15;;;;;;;12.62;100.00;95659.81;1034115;28;20519;-72
2023/06/08 00:33:40;;;;;;;6.30;4.50;;;;;;;12.62;100.00;95660.59;1038227;28;20026;-73
2023/06/08 00:34:11;;;;;;;5.28;4.15;;;;;;;12.60;100.00;95657.47;1038023;28;20542;-73
2023/06/08 00:34:41;;;;;;;5.55;4.20;;;;;;;12.57;100.00;95650.13;1034321;28;20480;-73
2023/06/08 00:35:12;;;;;;;22.02;4.03;;;;;;;12.60;100.00;95656.69;1022460;28;20032;-73
2023/06/08 00:35:42;;;;;;;5.13;3.85;;;;;;;12.57;100.00;95657.22;1022205;29;20015;-73
2023/06/08 00:36:13;;;;;;;6.68;4.30;;;;;;;12.53;100.00;95661.47;1022119;28;20023;-73
2023/06/08 00:36:43;;;;;;;5.35;4.07;;;;;;;12.50;100.00;95652.28;1032510;28;20034;-73
2023/06/08 00:37:14;;;;;;;5.85;3.97;;;;;;;12.48;100.00;95655.19;1034216;28;20061;-73
2023/06/08 00:37:44;;;;;;;4.80;3.67;;;;;;;12.45;100.00;95655.75;1030098;28;20104;-73
2023/06/08 00:38:15;;;;;;;8.32;4.75;;;;;;;12.43;100.00;95660.50;1029633;28;20161;-74
2023/06/08 00:38:45;;;;;;;5.38;4.50;;;;;;;12.41;100.00;95661.84;1026154;28;20025;-73
2023/06/08 00:39:16;;;;;;;14.48;4.28;;;;;;;12.37;100.00;95664.22;1030070;28;20485;-73
2023/06/08 00:39:46;;;;;;;5.95;4.07;;;;;;;12.35;100.00;95657.69;1033969;28;20435;-72
2023/06/08 00:40:16;;;;;;;9.95;3.67;;;;;;;12.33;100.00;95654.53;1029696;28;20045;-73
2023/06/08 00:40:47;;;;;;;11.77;4.45;;;;;;;12.30;100.00;95663.75;1022073;29;20027;-72
2023/06/08 00:41:17;;;;;;;4.47;3.88;;;;;;;12.29;100.00;95661.41;1021499;28;20396;-72
2023/06/08 00:41:48;;;;;;;8.35;4.18;;;;;;;12.29;100.00;95666.69;1025712;28;20066;-72
2023/06/08 00:42:18;;;;;;;5.57;3.97;;;;;;;12.25;100.00;95658.53;1030105;28;20026;-73
2023/06/08 00:42:49;;;;;;;6.22;3.83;;;;;;;12.29;100.00;95667.47;1026240;28;20042;-72
2023/06/08 00:43:19;;;;;;;5.20;4.25;;;;;;;12.29;100.00;95662.19;1030447;28;20101;-72
2023/06/08 00:43:50;;;;;;;5.80;4.15;;;;;;;12.32;100.00;95661.66;1025984;28;20046;-72
2023/06/08 00:44:20;;;;;;;6.25;4.35;;;;;;;12.31;100.00;95667.97;1022111;28;20065;-72
2023/06/08 00:44:51;;;;;;;4.90;4.28;;;;;;;12.32;100.00;95669.53;1021897;28;20035;-74
2023/06/08 00:45:21;;;;;;;5.38;4.05;;;;;;;12.31;100.00;95661.91;1025125;28;20033;-73
2023/06/08 00:45:53;;;;;;;8.52;4.65;;;;;;;12.30;100.00;95660.34;1034003;28;20562;-74
2023/06/08 00:46:24;;;;;;;6.32;3.95;;;;;;;12.25;100.00;95656.69;1021833;28;20493;-72
2023/06/08 00:46:55;;;;;;;6.03;3.97;;;;;;;12.26;100.00;95662.75;1027881;28;20033;-73
2023/06/08 00:47:25;;;;;;;6.68;4.60;;;;;;;12.25;100.00;95661.97;1025992;28;20636;-73
2023/06/08 00:47:56;;;;;;;5.47;4.50;;;;;;;12.22;100.00;95656.47;1024320;28;20034;-73
2023/06/08 00:48:26;;;;;;;9.60;4.35;;;;;;;12.19;100.00;95664.91;1014047;29;20021;-73
2023/06/08 00:49:00;;;;;;;6.78;4.32;;;;;;;12.16;100.00;95660.19;1029893;28;20587;-72
2023/06/08 00:49:31;;;;;;;5.55;4.03;;;;;;;12.06;100.00;95652.38;1025957;28;20026;-72
2023/06/08 00:50:03;;;;;;;7.30;4.47;;;;;;;12.12;100.00;95664.44;1029983;28;20365;-73
2023/06/08 00:50:33;;;;;;;5.22;4.13;;;;;;;12.07;100.00;95654.72;1025865;28;20030;-73
2023/06/08 00:51:04;;;;;;;5.78;4.15;;;;;;;12.05;100.00;95656.06;1033574;28;20257;-75
2023/06/08 00:51:38;;;;;;;7.43;4.45;;;;;;;12.07;100.00;95664.44;1038076;28;20010;-73
2023/06/08 00:52:08;;;;;;;13.20;4.80;;;;;;;12.04;100.00;95663.16;1033070;28;20025;-73
2023/06/08 00:52:39;;;;;;;6.45;4.63;;;;;;;12.05;100.00;95661.31;1030111;28;20780;-72
2023/06/08 00:53:10;;;;;;;7.13;4.53;;;;;;;12.02;100.00;95658.16;1026042;28;20015;-73
2023/06/08 00:53:40;;;;;;;5.55;4.28;;;;;;;12.02;100.00;95658.16;1023853;28;20783;-74
2023/06/08 00:54:12;;;;;;;8.95;4.70;;;;;;;12.02;100.00;95660.03;1030273;28;20097;-73
2023/06/08 00:54:43;;;;;;;13.93;5.25;;;;;;;11.97;100.00;95654.78;1022055;29;20126;-71
2023/06/08 00:55:13;;;;;;;12.25;4.75;;;;;;;11.95;100.00;95655.06;1021434;28;20011;-73
2023/06/08 00:55:44;;;;;;;10.48;4.82;;;;;;;11.91;100.00;95653.25;1022156;29;20023;-73
2023/06/08 00:56:16;;;;;;;7.65;4.47;;;;;;;11.95;100.00;95649.81;1030098;28;20038;-72
2023/06/08 00:56:48;;;;;;;6.55;4.03;;;;;;;11.95;100.00;95660.31;1014167;29;20108;-73
2023/06/08 00:57:18;;;;;;;6.47;4.45;;;;;;;11.92;100.00;95657.44;1017932;29;20018;-73
2023/06/08 00:57:50;;;;;;;8.75;4.40;;;;;;;11.91;100.00;95655.91;1022000;29;20026;-72
2023/06/08 00:58:20;;;;;;;6.93;4.78;;;;;;;11.86;100.00;95653.28;1029913;28;20069;-73
2023/06/08 00:58:52;;;;;;;9.90;4.57;;;;;;;11.89;100.00;95655.38;1021869;28;20031;-72
2023/06/08 00:59:23;;;;;;;7.07;4.32;;;;;;;11.85;100.00;95663.00;1018232;29;20016;-72
2023/06/08 00:59:55;;;;;;;10.27;4.10;;;;;;;11.85;100.00;95657.75;1022085;29;20034;-73
2023/06/08 01:00:27;;;;;;;7.53;5.15;;;;;;;11.79;100.00;95654.34;1026027;28;20026;-73
2023/06/08 01:00:59;;;;;;;5.50;4.47;;;;;;;11.82;100.00;95658.28;1021829;28;20298;-71
2023/06/08 01:01:30;;;;;;;7.68;4.40;;;;;;;11.83;100.00;95653.78;1023324;28;20102;-72
2023/06/08 01:02:00;;;;;;;6.68;4.00;;;;;;;11.82;100.00;95660.91;1030655;28;20023;-73
2023/06/08 01:02:31;;;;;;;5.13;4.15;;;;;;;11.77;100.00;95651.22;1035260;28;20025;-72
2023/06/08 01:03:02;;;;;;;7.47;4.32;;;;;;;11.80;100.00;95655.13;1034750;28;20549;-74
2023/06/08 01:03:35;;;;;;;4.93;3.88;;;;;;;11.79;100.00;95654.34;1030838;28;20025;-74
2023/06/08 01:04:06;;;;;;;9.27;4.53;;;;;;;11.74;100.00;95650.97;1028872;28;20023;-73
2023/06/08 01:04:36;;;;;;;5.60;4.25;;;;;;;11.78;100.00;95657.25;1023303;28;20046;-73
2023/06/08 01:05:07;;;;;;;5.95;4.63;;;;;;;11.71;100.00;95652.28;1026981;28;20033;-73
2023/06/08 01:05:38;;;;;;;10.43;4.65;;;;;;;11.78;100.00;95657.25;1026717;28;20034;-73
2023/06/08 01:06:12;;;;;;;7.25;4.55;;;;;;;11.78;100.00;95657.25;1026843;28;20031;-74
2023/06/08 01:06:46;;;;;;;8.88;4.65;;;;;;;11.76;100.00;95654.88;1023535;28;20038;-73
2023/06/08 01:07:25;;;;;;;7.50;4.68;;;;;;;11.77;100.00;95656.47;1034931;28;20030;-72
2023/06/08 01:08:25;;;;;;;6.45;4.50;;;;;;;11.75;100.00;95657.78;1038917;28;20170;-73
2023/06/08 01:09:21;;;;;;;5.85;3.88;;;;;;;11.70;100.00;95660.44;1039683;28;20302;-73
2023/06/08 01:10:12;;;;;;;5.55;3.95;;;;;;;11.69;100.00;95648.34;1039022;28;20030;-72
2023/06/08 01:10:57;;;;;;;7.32;4.30;;;;;;;11.72;100.00;95658.31;1030836;28;20542;-73
2023/06/08 01:11:55;;;;;;;7.15;4.93;;;;;;;11.74;100.00;95661.47;1024422;28;20106;-73
2023/06/08 01:12:48;;;;;;;5.35;4.13;;;;;;;11.71;100.00;95667.28;1027904;28;20259;-73
2023/06/08 01:13:29;;;;;;;6.18;4.28;;;;;;;11.70;100.00;95665.69;1038101;28;20355;-73
2023/06/08 01:14:17;;;;;;;9.55;4.75;;;;;;;11.66;100.00;95664.66;1031681;28;20265;-72
2023/06/08 01:15:09;;;;;;;7.22;3.83;;;;;;;11.63;100.00;95660.72;1026894;28;20658;-73
2023/06/08 01:15:44;;;;;;;5.43;4.15;;;;;;;11.63;100.00;95662.56;1026985;28;20850;-72
2023/06/08 01:16:15;;;;;;;13.35;5.22;;;;;;;11.60;100.00;95658.63;1022710;29;20267;-73
2023/06/08 01:16:49;;;;;;;6.93;4.72;;;;;;;11.56;100.00;95657.59;1019043;29;20271;-74
2023/06/08 01:17:23;;;;;;;6.07;4.75;;;;;;;11.57;100.00;95664.47;1026641;28;20015;-73
2023/06/08 01:17:57;;;;;;;8.45;4.38;;;;;;;11.57;100.00;95661.81;1023739;28;20313;-73
2023/06/08 01:18:32;;;;;;;6.07;4.97;;;;;;;11.57;100.00;95662.59;1026851;28;20270;-73
2023/06/08 01:19:08;;;;;;;5.55;4.45;;;;;;;11.54;100.00;95663.16;1018791;29;20020;-73
2023/06/08 01:20:07;;;;;;;5.60;3.92;;;;;;;11.50;100.00;95656.88;1021439;28;20090;-73
2023/06/08 01:20:41;;;;;;;4.75;3.80;;;;;;;11.50;100.00;95662.13;1024976;28;20274;-73
2023/06/08 01:21:37;;;;;;;5.93;4.68;;;;;;;11.43;100.00;95651.09;1035153;28;21191;-73
2023/06/08 01:22:22;;;;;;;7.45;4.63;;;;;;;11.45;100.00;95659.50;1033008;28;20558;-73
2023/06/08 01:23:01;;;;;;;6.28;4.28;;;;;;;11.39;100.00;95652.69;1029599;28;20277;-74
2023/06/08 01:23:37;;;;;;;6.35;4.40;;;;;;;11.43;100.00;95661.59;1028619;28;20444;-72
2023/06/08 01:24:12;;;;;;;14.15;5.15;;;;;;;11.40;100.00;95651.66;1034443;28;20265;-73
2023/06/08 01:24:49;;;;;;;7.07;4.60;;;;;;;11.38;100.00;95653.75;1026605;28;20262;-73
2023/06/08 01:25:20;;;;;;;5.63;4.20;;;;;;;11.42;100.00;95654.78;1021031;29;20334;-74
2023/06/08 01:25:52;;;;;;;5.72;4.38;;;;;;;11.42;100.00;95664.50;1026641;28;20393;-73
2023/06/08 01:26:22;;;;;;;8.50;4.80;;;;;;;11.40;100.00;95651.66;1030613;28;20032;-73
2023/06/08 01:26:57;;;;;;;5.20;4.43;;;;;;;11.43;100.00;95661.59;1034731;28;20068;-73
2023/06/08 01:27:36;;;;;;;6.03;4.50;;;;;;;11.38;100.00;95653.75;1021190;29;20027;-73
2023/06/08 01:28:13;;;;;;;8.60;4.63;;;;;;;11.38;100.00;95651.13;1030319;28;20348;-73
2023/06/08 01:28:49;;;;;;;8.65;4.93;;;;;;;11.38;100.00;95648.50;1034731;28;20272;-72
2023/06/08 01:29:25;;;;;;;5.43;4.43;;;;;;;11.39;100.00;95647.44;1034803;28;20301;-73
2023/06/08 01:29:55;;;;;;;8.52;4.50;;;;;;;11.44;100.00;95652.69;1028262;28;20280;-72
2023/06/08 01:30:26;;;;;;;7.88;4.57;;;;;;;11.45;100.00;95651.63;1022537;29;20038;-73
2023/06/08 01:30:58;;;;;;;8.13;4.57;;;;;;;11.40;100.00;95651.66;1024441;28;20043;-72
2023/06/08 01:31:28;;;;;;;6.07;4.68;;;;;;;11.39;100.00;95644.81;1026054;28;20113;-73
2023/06/08 01:31:59;;;;;;;7.55;4.25;;;;;;;11.38;100.00;95653.75;1023083;29;20864;-73
2023/06/08 01:32:30;;;;;;;10.90;5.05;;;;;;;11.38;100.00;95653.75;1026455;28;20126;-74
2023/06/08 01:33:00;;;;;;;8.05;4.35;;;;;;;11.32;100.00;95641.69;1018722;29;21075;-72
2023/06/08 01:33:31;;;;;;;9.23;4.85;;;;;;;11.35;100.00;95646.41;1018267;29;20405;-73
2023/06/08 01:34:02;;;;;;;7.32;4.60;;;;;;;11.34;100.00;95647.47;1022658;29;20034;-72
2023/06/08 01:34:33;;;;;;;5.72;4.40;;;;;;;11.34;100.00;95652.72;1022848;28;20030;-72
2023/06/08 01:35:03;;;;;;;10.07;4.38;;;;;;;11.35;100.00;95649.03;1022866;28;20819;-73
2023/06/08 01:35:34;;;;;;;8.38;4.80;;;;;;;11.27;100.00;95641.72;1026900;28;20262;-73
2023/06/08 01:36:17;;;;;;;10.30;4.50;;;;;;;11.33;100.00;95648.50;1026693;28;20132;-73
2023/06/08 01:37:02;;;;;;;6.38;4.40;;;;;;;11.32;100.00;95649.56;1028186;28;20030;-73
2023/06/08 01:37:35;;;;;;;8.00;4.20;;;;;;;11.31;100.00;95648.78;1022689;29;20275;-73
2023/06/08 01:38:33;;;;;;;6.03;4.63;;;;;;;11.29;100.00;95650.88;1022633;28;20334;-72
2023/06/08 01:39:28;;;;;;;6.35;4.30;;;;;;;11.24;100.00;95643.03;1018870;28;20259;-73
2023/06/08 01:40:24;;;;;;;8.15;4.25;;;;;;;11.28;100.00;95653.78;1025528;28;20266;-73
2023/06/08 01:40:56;;;;;;;6.50;4.20;;;;;;;11.26;100.00;95658.53;1029286;28;20281;-73
2023/06/08 01:41:33;;;;;;;5.40;4.38;;;;;;;11.25;100.00;95651.72;1028336;28;20262;-74
2023/06/08 01:42:04;;;;;;;5.80;3.95;;;;;;;11.25;100.00;95649.06;1034571;28;20277;-73
2023/06/08 01:42:35;;;;;;;5.85;4.22;;;;;;;11.23;100.00;95651.19;1029348;28;20314;-73
2023/06/08 01:43:05;;;;;;;5.88;4.18;;;;;;;11.22;100.00;95647.00;1030610;28;20273;-73
2023/06/08 01:43:36;;;;;;;7.75;4.43;;;;;;;11.19;100.00;95645.66;1015885;29;20447;-73
2023/06/08 01:44:07;;;;;;;5.55;4.45;;;;;;;11.19;100.00;95645.66;1022552;29;20035;-73
2023/06/08 01:44:43;;;;;;;5.60;4.00;;;;;;;11.19;100.00;95650.16;1022545;29;20035;-73
2023/06/08 01:45:17;;;;;;;6.00;4.47;;;;;;;11.17;100.00;95645.19;1022367;29;20035;-73
2023/06/08 01:45:49;;;;;;;5.43;4.20;;;;;;;11.16;100.00;95650.69;1023964;28;20823;-73
2023/06/08 01:46:21;;;;;;;6.28;4.60;;;;;;;11.14;100.00;95640.47;1030586;28;20432;-73
2023/06/08 01:46:55;;;;;;;6.00;4.20;;;;;;;11.08;100.00;95633.66;1027498;28;20270;-72
2023/06/08 01:47:36;;;;;;;6.78;4.22;;;;;;;11.15;100.00;95646.50;1023536;28;20267;-73
2023/06/08 01:48:06;;;;;;;9.65;4.72;;;;;;;11.06;100.00;95636.53;1024575;28;20350;-72
2023/06/08 01:48:38;;;;;;;6.45;4.40;;;;;;;11.04;100.00;95633.41;1024568;28;20035;-74
2023/06/08 01:49:08;;;;;;;6.88;4.60;;;;;;;11.12;100.00;95649.66;1024008;28;20034;-73
2023/06/08 01:49:39;;;;;;;5.88;4.32;;;;;;;11.05;100.00;95634.19;1019029;29;20641;-73
2023/06/08 01:50:10;;;;;;;6.75;4.35;;;;;;;11.10;100.00;95644.69;1019288;29;20043;-73
2023/06/08 01:50:41;;;;;;;6.43;4.43;;;;;;;11.12;100.00;95647.03;1030605;28;20023;-74
2023/06/08 01:51:12;;;;;;;4.95;4.05;;;;;;;11.10;100.00;95644.69;1025801;28;20780;-73
2023/06/08 01:51:42;;;;;;;4.70;4.22;;;;;;;11.03;100.00;95633.66;1030703;28;20265;-73
2023/06/08 01:52:12;;;;;;;7.40;4.47;;;;;;;11.01;100.00;95628.69;1018946;29;20668;-72
2023/06/08 01:52:43;;;;;;;6.13;4.72;;;;;;;11.06;100.00;95643.63;1018762;29;20028;-72
2023/06/08 01:53:16;;;;;;;5.28;4.13;;;;;;;11.06;100.00;95641.00;1022546;28;20038;-73
2023/06/08 01:53:46;;;;;;;6.95;5.32;;;;;;;11.03;100.00;95639.72;1026911;28;20193;-73
2023/06/08 01:54:17;;;;;;;7.03;4.28;;;;;;;11.06;100.00;95643.63;1030583;28;20820;-72
2023/06/08 01:54:47;;;;;;;4.35;3.95;;;;;;;11.04;100.00;95641.28;1023051;28;20031;-73
2023/06/08 01:55:18;;;;;;;5.00;4.03;;;;;;;11.03;100.00;95644.16;1022337;28;20046;-73
2023/06/08 01:55:49;;;;;;;4.93;4.10;;;;;;;10.96;100.00;95633.94;1018787;29;20047;-73
2023/06/08 01:56:20;;;;;;;8.75;4.68;;;;;;;11.02;100.00;95645.22;1026493;28;20297;-73
2023/06/08 01:56:51;;;;;;;7.00;4.75;;;;;;;11.01;100.00;95647.06;1026529;28;20735;-73
2023/06/08 01:57:21;;;;;;;6.53;4.63;;;;;;;11.01;100.00;95647.06;1022243;29;20031;-73
2023/06/08 01:57:52;;;;;;;6.60;4.72;;;;;;;11.02;100.00;95643.38;1014995;29;20036;-74
2023/06/08 01:58:22;;;;;;;9.05;4.70;;;;;;;11.02;100.00;95646.00;1022720;28;20027;-72
2023/06/08 01:58:53;;;;;;;6.22;4.18;;;;;;;10.99;100.00;95643.91;1030525;28;20683;-73
2023/06/08 01:59:23;;;;;;;5.75;4.55;;;;;;;11.03;100.00;95647.59;1030507;28;20057;-73
2023/06/08 01:59:53;;;;;;;8.15;4.18;;;;;;;11.00;100.00;95635.00;1034619;28;20030;-72
2023/06/08 02:00:25;;;;;;;6.00;4.80;;;;;;;11.02;100.00;95650.47;1027540;28;20027;-73
2023/06/08 02:00:56;;;;;;;6.45;4.68;;;;;;;11.01;100.00;95644.44;1026723;28;20038;-73
2023/06/08 02:01:26;;;;;;;7.22;4.53;;;;;;;11.01;100.00;95644.44;1029829;28;20647;-73
2023/06/08 02:01:57;;;;;;;5.90;4.50;;;;;;;11.00;100.00;95642.88;1022645;28;20153;-73
2023/06/08 02:02:27;;;;;;;6.28;4.35;;;;;;;11.00;100.00;95642.88;1026419;28;20034;-72
2023/06/08 02:02:57;;;;;;;5.47;4.50;;;;;;;11.00;100.00;95642.88;1030662;28;20053;-73
2023/06/08 02:03:28;;;;;;;5.50;4.15;;;;;;;10.87;100.00;95619.78;1034603;28;20033;-72
2023/06/08 02:03:58;;;;;;;6.15;4.45;;;;;;;11.02;100.00;95640.75;1038337;28;20055;-72
2023/06/08 02:04:29;;;;;;;5.60;4.18;;;;;;;10.97;100.00;95638.16;1030557;28;20041;-72
2023/06/08 02:05:00;;;;;;;4.75;4.28;;;;;;;11.03;100.00;95641.53;1026367;28;20030;-72
2023/06/08 02:05:30;;;;;;;4.95;4.40;;;;;;;11.01;100.00;95639.19;1022257;28;20027;-72
2023/06/08 02:06:01;;;;;;;6.38;4.57;;;;;;;11.03;100.00;95642.34;1026662;28;20548;-73
2023/06/08 02:06:31;;;;;;;5.57;4.50;;;;;;;11.02;100.00;95640.75;1026227;28;20448;-73
2023/06/08 02:07:02;;;;;;;6.13;4.20;;;;;;;11.02;100.00;95637.34;1029678;28;20038;-74
2023/06/08 02:07:32;;;;;;;10.63;4.60;;;;;;;10.99;100.00;95636.03;1038359;28;20025;-72
2023/06/08 02:08:03;;;;;;;6.78;4.35;;;;;;;10.99;100.00;95638.66;1038693;28;20040;-73
2023/06/08 02:08:33;;;;;;;6.75;4.60;;;;;;;10.99;100.00;95641.28;1034619;28;20021;-74
2023/06/08 02:09:03;;;;;;;9.30;4.78;;;;;;;10.79;100.00;95609.81;1031098;28;20097;-74
2023/06/08 02:09:34;;;;;;;5.50;4.60;;;;;;;10.94;100.00;95638.69;1038667;28;20472;-74
2023/06/08 02:10:05;;;;;;;10.48;4.88;;;;;;;10.97;100.00;95632.91;1030574;28;20025;-73
2023/06/08 02:10:35;;;;;;;5.90;4.30;;;;;;;10.96;100.00;95639.19;1030698;28;20453;-72
2023/06/08 02:11:06;;;;;;;4.68;4.00;;;;;;;10.96;100.00;95641.81;1025791;28;20031;-72
2023/06/08 02:11:36;;;;;;;6.88;4.35;;;;;;;10.97;100.00;95637.38;1026725;28;20026;-74
2023/06/08 02:12:07;;;;;;;6.25;3.88;;;;;;;10.96;100.00;95639.19;1030416;28;20037;-72
2023/06/08 02:12:38;;;;;;;5.53;3.63;;;;;;;10.91;100.00;95636.59;1026266;28;20064;-74
2023/06/08 02:13:08;;;;;;;6.72;4.28;;;;;;;10.95;100.00;95640.25;1030209;28;20030;-73
2023/06/08 02:13:42;;;;;;;5.28;4.00;;;;;;;10.96;100.00;95641.03;1030674;28;20030;-74
2023/06/08 02:14:12;;;;;;;5.07;3.80;;;;;;;10.93;100.00;95639.75;1028176;28;20054;-74
2023/06/08 02:14:43;;;;;;;5.65;4.28;;;;;;;10.92;100.00;95638.16;1030508;28;20281;-74
2023/06/08 02:15:13;;;;;;;5.72;4.35;;;;;;;10.91;100.00;95636.59;1026455;28;20039;-74
2023/06/08 02:15:44;;;;;;;7.45;3.92;;;;;;;10.92;100.00;95637.38;1030472;28;20221;-74
2023/06/08 02:16:18;;;;;;;6.72;5.05;;;;;;;10.90;100.00;95637.66;1034295;28;20041;-73
2023/06/08 02:16:49;;;;;;;6.15;4.82;;;;;;;10.91;100.00;95633.19;1031125;28;20030;-74
2023/06/08 02:17:26;;;;;;;5.43;4.30;;;;;;;10.91;100.00;95638.44;1030702;28;20266;-74
2023/06/08 02:18:00;;;;;;;7.57;4.82;;;;;;;10.89;100.00;95637.91;1024822;28;20147;-74
2023/06/08 02:18:30;;;;;;;7.95;5.43;;;;;;;10.84;100.00;95628.19;1024424;28;20677;-73
2023/06/08 02:19:01;;;;;;;8.90;4.88;;;;;;;10.87;100.00;95643.44;1034536;28;20279;-74
2023/06/08 02:19:32;;;;;;;7.15;4.65;;;;;;;10.81;100.00;95629.50;1034386;28;20622;-73
2023/06/08 02:20:07;;;;;;;5.40;4.35;;;;;;;10.85;100.00;95640.25;1022315;28;20086;-74
2023/06/08 02:20:37;;;;;;;9.57;5.20;;;;;;;10.86;100.00;95647.09;1018634;29;20031;-74
2023/06/08 02:21:08;;;;;;;8.07;4.68;;;;;;;10.83;100.00;95644.97;1021800;28;20560;-74
2023/06/08 02:21:39;;;;;;;6.00;4.53;;;;;;;10.85;100.00;95648.91;1026072;28;20483;-74
2023/06/08 02:22:09;;;;;;;7.68;4.57;;;;;;;10.82;100.00;95644.19;1027173;28;20050;-73
2023/06/08 02:22:40;;;;;;;7.97;5.10;;;;;;;10.89;100.00;95651.03;1026218;28;20038;-73
2023/06/08 02:23:10;;;;;;;9.85;4.20;;;;;;;10.87;100.00;95647.88;1033987;28;20101;-74
2023/06/08 02:23:41;;;;;;;5.80;4.35;;;;;;;10.85;100.00;95642.88;1027117;28;20023;-73
2023/06/08 02:24:11;;;;;;;9.02;5.22;;;;;;;10.86;100.00;95647.09;1027160;28;20058;-74
2023/06/08 02:24:42;;;;;;;7.70;4.35;;;;;;;10.78;100.00;95639.75;1028267;28;20035;-73
2023/06/08 02:25:13;;;;;;;8.02;5.47;;;;;;;10.84;100.00;95649.19;1035220;28;20037;-74
2023/06/08 02:25:43;;;;;;;9.55;5.00;;;;;;;10.82;100.00;95643.41;1039152;28;20060;-74
2023/06/08 02:26:14;;;;;;;6.78;4.90;;;;;;;10.87;100.00;95648.66;1034901;28;20065;-74
2023/06/08 02:26:44;;;;;;;8.27;5.05;;;;;;;10.87;100.00;95646.03;1038592;28;20104;-74
2023/06/08 02:27:15;;;;;;;13.35;4.93;;;;;;;10.86;100.00;95644.47;1030923;28;20077;-73
2023/06/08 02:27:48;;;;;;;5.55;4.63;;;;;;;10.87;100.00;95653.91;1027158;28;20034;-74
2023/06/08 02:28:19;;;;;;;7.90;4.63;;;;;;;10.90;100.00;95653.41;1030589;28;20026;-74
2023/06/08 02:28:50;;;;;;;6.25;5.25;;;;;;;10.91;100.00;95649.72;1027513;28;20753;-74
2023/06/08 02:29:20;;;;;;;5.90;4.45;;;;;;;10.90;100.00;95652.59;1026777;28;20255;-74
2023/06/08 02:29:51;;;;;;;8.35;4.85;;;;;;;10.91;100.00;95652.34;1028266;28;20089;-74
2023/06/08 02:30:21;;;;;;;7.20;5.00;;;;;;;10.92;100.00;95651.28;1026777;28;20034;-73
2023/06/08 02:30:52;;;;;;;7.13;5.15;;;;;;;10.94;100.00;95643.94;1027002;28;20082;-74
2023/06/08 02:31:25;;;;;;;9.23;5.10;;;;;;;10.95;100.00;95648.13;1034101;28;20032;-75
2023/06/08 02:31:55;;;;;;;6.30;5.13;;;;;;;10.95;100.00;95645.50;1039085;28;20684;-73